Jaguar Max — C6ZD7 — position and weather

sailwx.info

Track history (hours):
 
Tides and Currents Weather Stations Pressure Air Temp Water Temp Dewpoint Dewpoint Depression Visibility Wind Speed Wind Dir Waves Ship Positions

Jaguar Max

Last reported at 2017-Nov-14 20:40 UTC. Time now 2017-Nov-20 02:08 UTC.
Position N 00°11' W 050°46'.

Length 229 m; draft 14.4 m.

Type: Cargo ship. MMSI: 311053300.

Date/timePositionNaut miles runAvg speedWind from/ knotsBaromVisibWave heightAir tempDewpointWater temp
2017-Nov-14 20:40N 00°11' W 050°46'1 9.6
2017-Nov-14 20:30N 00°11' W 050°47'5 9.3
2017-Nov-14 20:00N 00°10' W 050°52'5 9.2
2017-Nov-14 19:30N 00°09' W 050°56'510.5
2017-Nov-14 19:00N 00°05' W 050°59'510.0
2017-Nov-14 18:30S 00°00' W 051°01'611.5
2017-Nov-14 18:00S 00°06' W 051°01'713.2
2017-Nov-14 17:30S 00°12' W 051°02'330 8.4
2017-Nov-13 02:01S 01°27' W 056°24'0 0.0
2017-Nov-13 01:31S 01°27' W 056°24'0 0.2
2017-Nov-13 01:01S 01°27' W 056°24'0 0.1
2017-Nov-13 00:31S 01°27' W 056°24'0 0.2
2017-Nov-13 00:00S 01°27' W 056°24'0 0.1
2017-Nov-12 23:31S 01°27' W 056°24'0 0.0
2017-Nov-12 23:00S 01°27' W 056°24'0 0.0
2017-Nov-12 22:31S 01°27' W 056°24'0 0.0
2017-Nov-12 22:01S 01°27' W 056°24'0 0.0
2017-Nov-12 21:31S 01°27' W 056°24'0 0.0
2017-Nov-12 21:01S 01°27' W 056°24'1 0.5
2017-Nov-12 18:57S 01°28' W 056°23'0 0.0
2017-Nov-12 18:24S 01°28' W 056°23'0 0.0
2017-Nov-12 18:00S 01°28' W 056°23'0 0.0
2017-Nov-12 17:30S 01°28' W 056°23'0 0.0
2017-Nov-12 16:54S 01°28' W 056°23'0 0.0
2017-Nov-12 16:30S 01°28' W 056°23'0 0.0
2017-Nov-12 16:00S 01°28' W 056°23'0 0.0
2017-Nov-12 15:30S 01°28' W 056°23'0 0.0
2017-Nov-12 15:00S 01°28' W 056°23'0 0.0
2017-Nov-12 14:30S 01°28' W 056°23'0 0.0
2017-Nov-12 14:00S 01°28' W 056°23'0 0.0
2017-Nov-12 13:30S 01°28' W 056°23'0 0.0
2017-Nov-12 13:00S 01°28' W 056°23'0 0.0
2017-Nov-12 12:30S 01°28' W 056°23'0 0.0
2017-Nov-12 12:00S 01°28' W 056°23'0 0.0
2017-Nov-12 11:30S 01°28' W 056°23'0 0.0
2017-Nov-12 11:00S 01°28' W 056°23'0 0.0
2017-Nov-12 10:30S 01°28' W 056°23'0 0.0
2017-Nov-12 09:54S 01°28' W 056°23'0 0.0
2017-Nov-12 09:30S 01°28' W 056°23'0 0.0
2017-Nov-12 09:00S 01°28' W 056°23'0 0.0
2017-Nov-12 08:30S 01°28' W 056°23'0 0.0
2017-Nov-12 08:00S 01°28' W 056°23'0 0.0
2017-Nov-12 07:27S 01°28' W 056°23'0 0.0
2017-Nov-12 07:00S 01°28' W 056°23'0 0.0
2017-Nov-12 06:30S 01°28' W 056°23'0 0.0
2017-Nov-12 05:57S 01°28' W 056°23'0 0.0
2017-Nov-12 05:30S 01°28' W 056°23'0 0.0
2017-Nov-12 05:00S 01°28' W 056°23'0 0.0
2017-Nov-12 04:30S 01°28' W 056°23'0 0.0
2017-Nov-12 04:00S 01°28' W 056°23'0 0.0
2017-Nov-12 03:30S 01°28' W 056°23'0 0.0
2017-Nov-12 03:00S 01°28' W 056°23'0 0.0
2017-Nov-12 02:30S 01°28' W 056°23'0 0.0
2017-Nov-12 01:57S 01°28' W 056°23'0 0.0
2017-Nov-12 01:30S 01°28' W 056°23'0 0.0
2017-Nov-12 01:00S 01°28' W 056°23'0 0.0
2017-Nov-12 00:30S 01°28' W 056°23'0 0.0
2017-Nov-12 00:00S 01°28' W 056°23'0 0.0
2017-Nov-11 23:30S 01°28' W 056°23'0 0.0
2017-Nov-11 23:00S 01°28' W 056°23'0 0.0
2017-Nov-11 22:27S 01°28' W 056°23'0 0.0
2017-Nov-11 21:57S 01°28' W 056°23'0 0.0
2017-Nov-11 21:27S 01°28' W 056°23'0 0.0
2017-Nov-11 21:00S 01°28' W 056°23'0 0.0
2017-Nov-11 20:30S 01°28' W 056°23'0 0.0
2017-Nov-11 19:57S 01°28' W 056°23'0 0.0
2017-Nov-11 19:30S 01°28' W 056°23'0 0.0
2017-Nov-11 19:00S 01°28' W 056°23'0 0.0
2017-Nov-11 18:30S 01°28' W 056°23'0 0.0
2017-Nov-11 16:48S 01°28' W 056°23'0 0.0
2017-Nov-11 16:24S 01°28' W 056°23'0 0.0
2017-Nov-11 15:57S 01°28' W 056°23'0 0.0
2017-Nov-11 15:30S 01°28' W 056°23'0 0.0
2017-Nov-11 15:00S 01°28' W 056°23'0 0.0
2017-Nov-11 14:30S 01°28' W 056°23'0 0.0
2017-Nov-11 14:00S 01°28' W 056°23'0 0.0
2017-Nov-11 13:30S 01°28' W 056°23'0 0.0
2017-Nov-11 13:00S 01°28' W 056°23'0 0.0
2017-Nov-11 12:31S 01°28' W 056°23'1 1.1
2017-Nov-11 11:55S 01°28' W 056°22'0 0.0
2017-Nov-11 11:25S 01°28' W 056°22'0 0.0
2017-Nov-11 10:58S 01°28' W 056°22'0 0.0
2017-Nov-11 10:28S 01°28' W 056°22'0 0.0
2017-Nov-11 09:58S 01°28' W 056°22'0 0.0
2017-Nov-11 09:25S 01°28' W 056°22'0 0.0
2017-Nov-11 08:58S 01°28' W 056°22'0 0.0
2017-Nov-11 08:28S 01°28' W 056°22'0 0.0
2017-Nov-11 07:58S 01°28' W 056°22'0 0.0
2017-Nov-11 07:28S 01°28' W 056°22'0 0.0
2017-Nov-11 06:55S 01°28' W 056°22'0 0.0
2017-Nov-11 06:28S 01°28' W 056°22'0 0.0
2017-Nov-11 05:58S 01°28' W 056°22'0 0.0
2017-Nov-11 05:28S 01°28' W 056°22'0 0.0
2017-Nov-11 04:55S 01°28' W 056°22'0 0.0
2017-Nov-11 04:25S 01°28' W 056°22'0 0.0
2017-Nov-11 03:58S 01°28' W 056°22'0 0.0
2017-Nov-11 03:25S 01°28' W 056°22'0 0.0
2017-Nov-11 02:55S 01°28' W 056°22'0 0.0
2017-Nov-11 02:28S 01°28' W 056°22'0 0.0
2017-Nov-11 01:58S 01°28' W 056°22'0 0.0
2017-Nov-11 01:28S 01°28' W 056°22'0 0.0
2017-Nov-11 00:58S 01°28' W 056°22'0 0.0
2017-Nov-11 00:28S 01°28' W 056°22'0 0.0
2017-Nov-10 23:58S 01°28' W 056°22'0 0.0
2017-Nov-10 23:28S 01°28' W 056°22'0 0.0
2017-Nov-10 22:58S 01°28' W 056°22'0 0.0
2017-Nov-10 22:28S 01°28' W 056°22'0 0.0
2017-Nov-10 21:58S 01°28' W 056°22'0 0.0
2017-Nov-10 21:28S 01°28' W 056°22'0 0.0
2017-Nov-10 20:58S 01°28' W 056°22'0 0.0
2017-Nov-10 20:28S 01°28' W 056°22'0 0.0
2017-Nov-10 19:58S 01°28' W 056°22'0 0.0
2017-Nov-10 19:28S 01°28' W 056°22'0 0.0
2017-Nov-10 18:55S 01°28' W 056°22'0 0.0
2017-Nov-10 18:28S 01°28' W 056°22'0 0.0
2017-Nov-10 17:58S 01°28' W 056°22'0 0.0
2017-Nov-10 16:49S 01°28' W 056°22'0 0.0
2017-Nov-10 16:28S 01°28' W 056°22'0 0.0
2017-Nov-10 15:55S 01°28' W 056°22'0 0.0
2017-Nov-10 15:28S 01°28' W 056°22'0 0.0
2017-Nov-10 14:55S 01°28' W 056°22'0 0.0
2017-Nov-10 14:28S 01°28' W 056°22'0 0.0
2017-Nov-10 13:55S 01°28' W 056°22'0 0.0
2017-Nov-10 13:19S 01°28' W 056°22'0 0.0
2017-Nov-10 12:58S 01°28' W 056°22'0 0.0
2017-Nov-10 12:25S 01°28' W 056°22'0 0.0
2017-Nov-10 11:55S 01°28' W 056°22'0 0.0
2017-Nov-10 11:28S 01°28' W 056°22'0 0.0
2017-Nov-10 10:58S 01°28' W 056°22'0 0.0
2017-Nov-10 10:25S 01°28' W 056°22'0 0.0
2017-Nov-10 09:58S 01°28' W 056°22'0 0.0
2017-Nov-10 09:28S 01°28' W 056°22'0 0.0
2017-Nov-10 08:55S 01°28' W 056°22'0 0.0
2017-Nov-10 08:28S 01°28' W 056°22'0 0.0
2017-Nov-10 07:58S 01°28' W 056°22'0 0.0
2017-Nov-10 07:28S 01°28' W 056°22'0 0.0
2017-Nov-10 06:58S 01°28' W 056°22'0 0.0
2017-Nov-10 06:22S 01°28' W 056°22'0 0.0
2017-Nov-10 05:58S 01°28' W 056°22'0 0.0
2017-Nov-10 05:28S 01°28' W 056°22'0 0.0
2017-Nov-10 04:49S 01°28' W 056°22'0 0.0
2017-Nov-10 04:28S 01°28' W 056°22'0 0.0
2017-Nov-10 03:58S 01°28' W 056°22'0 0.0
2017-Nov-10 03:28S 01°28' W 056°22'0 0.0
2017-Nov-10 02:58S 01°28' W 056°22'0 0.0
2017-Nov-10 02:25S 01°28' W 056°22'0 0.0
2017-Nov-10 01:58S 01°28' W 056°22'0 0.0
2017-Nov-10 01:25S 01°28' W 056°22'0 0.0
2017-Nov-10 00:58S 01°28' W 056°22'0 0.0
2017-Nov-10 00:28S 01°28' W 056°22'0 0.0
2017-Nov-09 23:58S 01°28' W 056°22'0 0.0
2017-Nov-09 23:28S 01°28' W 056°22'0 0.0
2017-Nov-09 22:58S 01°28' W 056°22'0 0.0
2017-Nov-09 22:28S 01°28' W 056°22'0 0.0
2017-Nov-09 21:58S 01°28' W 056°22'0 0.0
2017-Nov-09 21:28S 01°28' W 056°22'0 0.0
2017-Nov-09 20:55S 01°28' W 056°22'0 0.0
2017-Nov-09 20:28S 01°28' W 056°22'0 0.0
2017-Nov-09 19:58S 01°28' W 056°22'0 0.0
2017-Nov-09 19:28S 01°28' W 056°22'0 0.0
2017-Nov-09 18:59S 01°28' W 056°22'1 2.3
2017-Nov-09 18:30S 01°28' W 056°21'5 9.6
2017-Nov-09 18:00S 01°31' W 056°18'510.5
2017-Nov-09 17:31S 01°31' W 056°12'713.8
2017-Nov-09 17:01S 01°31' W 056°05'29610.0
2017-Nov-08 11:16S 00°14' W 051°19'415.0
2017-Nov-08 11:01S 00°11' W 051°17'714.3
2017-Nov-08 10:31S 00°07' W 051°11'611.4
2017-Nov-08 10:00S 00°04' W 051°06'4 7.7
2017-Nov-08 09:30S 00°02' W 051°03'4 8.7
2017-Nov-08 09:00N 00°02' W 051°01'510.1
2017-Nov-08 08:30N 00°06' W 050°59'510.9
2017-Nov-08 08:00N 00°09' W 050°54'611.6
2017-Nov-08 07:30N 00°10' W 050°48'611.3
2017-Nov-08 06:59N 00°12' W 050°43'  
Track history (hours):
 
Tides and Currents Weather Stations Pressure Air Temp Water Temp Dewpoint Dewpoint Depression Visibility Wind Speed Wind Dir Waves Ship Positions

Jaguar Max

Last reported at 2017-Nov-14 20:40 UTC. Time now 2017-Nov-20 02:08 UTC.
Position N 00°11' W 050°46'.

Length 229 m; draft 14.4 m.

Type: Cargo ship. MMSI: 311053300.

Date/timePositionNaut miles runAvg speedWind from/ knotsBaromVisibWave heightAir tempDewpointWater temp
2017-Nov-14 20:40N 00°11' W 050°46'1 9.6
2017-Nov-14 20:30N 00°11' W 050°47'5 9.3
2017-Nov-14 20:00N 00°10' W 050°52'5 9.2
2017-Nov-14 19:30N 00°09' W 050°56'510.5
2017-Nov-14 19:00N 00°05' W 050°59'510.0
2017-Nov-14 18:30S 00°00' W 051°01'611.5
2017-Nov-14 18:00S 00°06' W 051°01'713.2
2017-Nov-14 17:30S 00°12' W 051°02'330 8.4
2017-Nov-13 02:01S 01°27' W 056°24'0 0.0
2017-Nov-13 01:31S 01°27' W 056°24'0 0.2
2017-Nov-13 01:01S 01°27' W 056°24'0 0.1
2017-Nov-13 00:31S 01°27' W 056°24'0 0.2
2017-Nov-13 00:00S 01°27' W 056°24'0 0.1
2017-Nov-12 23:31S 01°27' W 056°24'0 0.0
2017-Nov-12 23:00S 01°27' W 056°24'0 0.0
2017-Nov-12 22:31S 01°27' W 056°24'0 0.0
2017-Nov-12 22:01S 01°27' W 056°24'0 0.0
2017-Nov-12 21:31S 01°27' W 056°24'0 0.0
2017-Nov-12 21:01S 01°27' W 056°24'1 0.5
2017-Nov-12 18:57S 01°28' W 056°23'0 0.0
2017-Nov-12 18:24S 01°28' W 056°23'0 0.0
2017-Nov-12 18:00S 01°28' W 056°23'0 0.0
2017-Nov-12 17:30S 01°28' W 056°23'0 0.0
2017-Nov-12 16:54S 01°28' W 056°23'0 0.0
2017-Nov-12 16:30S 01°28' W 056°23'0 0.0
2017-Nov-12 16:00S 01°28' W 056°23'0 0.0
2017-Nov-12 15:30S 01°28' W 056°23'0 0.0
2017-Nov-12 15:00S 01°28' W 056°23'0 0.0
2017-Nov-12 14:30S 01°28' W 056°23'0 0.0
2017-Nov-12 14:00S 01°28' W 056°23'0 0.0
2017-Nov-12 13:30S 01°28' W 056°23'0 0.0
2017-Nov-12 13:00S 01°28' W 056°23'0 0.0
2017-Nov-12 12:30S 01°28' W 056°23'0 0.0
2017-Nov-12 12:00S 01°28' W 056°23'0 0.0
2017-Nov-12 11:30S 01°28' W 056°23'0 0.0
2017-Nov-12 11:00S 01°28' W 056°23'0 0.0
2017-Nov-12 10:30S 01°28' W 056°23'0 0.0
2017-Nov-12 09:54S 01°28' W 056°23'0 0.0
2017-Nov-12 09:30S 01°28' W 056°23'0 0.0
2017-Nov-12 09:00S 01°28' W 056°23'0 0.0
2017-Nov-12 08:30S 01°28' W 056°23'0 0.0
2017-Nov-12 08:00S 01°28' W 056°23'0 0.0
2017-Nov-12 07:27S 01°28' W 056°23'0 0.0
2017-Nov-12 07:00S 01°28' W 056°23'0 0.0
2017-Nov-12 06:30S 01°28' W 056°23'0 0.0
2017-Nov-12 05:57S 01°28' W 056°23'0 0.0
2017-Nov-12 05:30S 01°28' W 056°23'0 0.0
2017-Nov-12 05:00S 01°28' W 056°23'0 0.0
2017-Nov-12 04:30S 01°28' W 056°23'0 0.0
2017-Nov-12 04:00S 01°28' W 056°23'0 0.0
2017-Nov-12 03:30S 01°28' W 056°23'0 0.0
2017-Nov-12 03:00S 01°28' W 056°23'0 0.0
2017-Nov-12 02:30S 01°28' W 056°23'0 0.0
2017-Nov-12 01:57S 01°28' W 056°23'0 0.0
2017-Nov-12 01:30S 01°28' W 056°23'0 0.0
2017-Nov-12 01:00S 01°28' W 056°23'0 0.0
2017-Nov-12 00:30S 01°28' W 056°23'0 0.0
2017-Nov-12 00:00S 01°28' W 056°23'0 0.0
2017-Nov-11 23:30S 01°28' W 056°23'0 0.0
2017-Nov-11 23:00S 01°28' W 056°23'0 0.0
2017-Nov-11 22:27S 01°28' W 056°23'0 0.0
2017-Nov-11 21:57S 01°28' W 056°23'0 0.0
2017-Nov-11 21:27S 01°28' W 056°23'0 0.0
2017-Nov-11 21:00S 01°28' W 056°23'0 0.0
2017-Nov-11 20:30S 01°28' W 056°23'0 0.0
2017-Nov-11 19:57S 01°28' W 056°23'0 0.0
2017-Nov-11 19:30S 01°28' W 056°23'0 0.0
2017-Nov-11 19:00S 01°28' W 056°23'0 0.0
2017-Nov-11 18:30S 01°28' W 056°23'0 0.0
2017-Nov-11 16:48S 01°28' W 056°23'0 0.0
2017-Nov-11 16:24S 01°28' W 056°23'0 0.0
2017-Nov-11 15:57S 01°28' W 056°23'0 0.0
2017-Nov-11 15:30S 01°28' W 056°23'0 0.0
2017-Nov-11 15:00S 01°28' W 056°23'0 0.0
2017-Nov-11 14:30S 01°28' W 056°23'0 0.0
2017-Nov-11 14:00S 01°28' W 056°23'0 0.0
2017-Nov-11 13:30S 01°28' W 056°23'0 0.0
2017-Nov-11 13:00S 01°28' W 056°23'0 0.0
2017-Nov-11 12:31S 01°28' W 056°23'1 1.1
2017-Nov-11 11:55S 01°28' W 056°22'0 0.0
2017-Nov-11 11:25S 01°28' W 056°22'0 0.0
2017-Nov-11 10:58S 01°28' W 056°22'0 0.0
2017-Nov-11 10:28S 01°28' W 056°22'0 0.0
2017-Nov-11 09:58S 01°28' W 056°22'0 0.0
2017-Nov-11 09:25S 01°28' W 056°22'0 0.0
2017-Nov-11 08:58S 01°28' W 056°22'0 0.0
2017-Nov-11 08:28S 01°28' W 056°22'0 0.0
2017-Nov-11 07:58S 01°28' W 056°22'0 0.0
2017-Nov-11 07:28S 01°28' W 056°22'0 0.0
2017-Nov-11 06:55S 01°28' W 056°22'0 0.0
2017-Nov-11 06:28S 01°28' W 056°22'0 0.0
2017-Nov-11 05:58S 01°28' W 056°22'0 0.0
2017-Nov-11 05:28S 01°28' W 056°22'0 0.0
2017-Nov-11 04:55S 01°28' W 056°22'0 0.0
2017-Nov-11 04:25S 01°28' W 056°22'0 0.0
2017-Nov-11 03:58S 01°28' W 056°22'0 0.0
2017-Nov-11 03:25S 01°28' W 056°22'0 0.0
2017-Nov-11 02:55S 01°28' W 056°22'0 0.0
2017-Nov-11 02:28S 01°28' W 056°22'0 0.0
2017-Nov-11 01:58S 01°28' W 056°22'0 0.0
2017-Nov-11 01:28S 01°28' W 056°22'0 0.0
2017-Nov-11 00:58S 01°28' W 056°22'0 0.0
2017-Nov-11 00:28S 01°28' W 056°22'0 0.0
2017-Nov-10 23:58S 01°28' W 056°22'0 0.0
2017-Nov-10 23:28S 01°28' W 056°22'0 0.0
2017-Nov-10 22:58S 01°28' W 056°22'0 0.0
2017-Nov-10 22:28S 01°28' W 056°22'0 0.0
2017-Nov-10 21:58S 01°28' W 056°22'0 0.0
2017-Nov-10 21:28S 01°28' W 056°22'0 0.0
2017-Nov-10 20:58S 01°28' W 056°22'0 0.0
2017-Nov-10 20:28S 01°28' W 056°22'0 0.0
2017-Nov-10 19:58S 01°28' W 056°22'0 0.0
2017-Nov-10 19:28S 01°28' W 056°22'0 0.0
2017-Nov-10 18:55S 01°28' W 056°22'0 0.0
2017-Nov-10 18:28S 01°28' W 056°22'0 0.0
2017-Nov-10 17:58S 01°28' W 056°22'0 0.0
2017-Nov-10 16:49S 01°28' W 056°22'0 0.0
2017-Nov-10 16:28S 01°28' W 056°22'0 0.0
2017-Nov-10 15:55S 01°28' W 056°22'0 0.0
2017-Nov-10 15:28S 01°28' W 056°22'0 0.0
2017-Nov-10 14:55S 01°28' W 056°22'0 0.0
2017-Nov-10 14:28S 01°28' W 056°22'0 0.0
2017-Nov-10 13:55S 01°28' W 056°22'0 0.0
2017-Nov-10 13:19S 01°28' W 056°22'0 0.0
2017-Nov-10 12:58S 01°28' W 056°22'0 0.0
2017-Nov-10 12:25S 01°28' W 056°22'0 0.0
2017-Nov-10 11:55S 01°28' W 056°22'0 0.0
2017-Nov-10 11:28S 01°28' W 056°22'0 0.0
2017-Nov-10 10:58S 01°28' W 056°22'0 0.0
2017-Nov-10 10:25S 01°28' W 056°22'0 0.0
2017-Nov-10 09:58S 01°28' W 056°22'0 0.0
2017-Nov-10 09:28S 01°28' W 056°22'0 0.0
2017-Nov-10 08:55S 01°28' W 056°22'0 0.0
2017-Nov-10 08:28S 01°28' W 056°22'0 0.0
2017-Nov-10 07:58S 01°28' W 056°22'0 0.0
2017-Nov-10 07:28S 01°28' W 056°22'0 0.0
2017-Nov-10 06:58S 01°28' W 056°22'0 0.0
2017-Nov-10 06:22S 01°28' W 056°22'0 0.0
2017-Nov-10 05:58S 01°28' W 056°22'0 0.0
2017-Nov-10 05:28S 01°28' W 056°22'0 0.0
2017-Nov-10 04:49S 01°28' W 056°22'0 0.0
2017-Nov-10 04:28S 01°28' W 056°22'0 0.0
2017-Nov-10 03:58S 01°28' W 056°22'0 0.0
2017-Nov-10 03:28S 01°28' W 056°22'0 0.0
2017-Nov-10 02:58S 01°28' W 056°22'0 0.0
2017-Nov-10 02:25S 01°28' W 056°22'0 0.0
2017-Nov-10 01:58S 01°28' W 056°22'0 0.0
2017-Nov-10 01:25S 01°28' W 056°22'0 0.0
2017-Nov-10 00:58S 01°28' W 056°22'0 0.0
2017-Nov-10 00:28S 01°28' W 056°22'0 0.0
2017-Nov-09 23:58S 01°28' W 056°22'0 0.0
2017-Nov-09 23:28S 01°28' W 056°22'0 0.0
2017-Nov-09 22:58S 01°28' W 056°22'0 0.0
2017-Nov-09 22:28S 01°28' W 056°22'0 0.0
2017-Nov-09 21:58S 01°28' W 056°22'0 0.0
2017-Nov-09 21:28S 01°28' W 056°22'0 0.0
2017-Nov-09 20:55S 01°28' W 056°22'0 0.0
2017-Nov-09 20:28S 01°28' W 056°22'0 0.0
2017-Nov-09 19:58S 01°28' W 056°22'0 0.0
2017-Nov-09 19:28S 01°28' W 056°22'0 0.0
2017-Nov-09 18:59S 01°28' W 056°22'1 2.3
2017-Nov-09 18:30S 01°28' W 056°21'5 9.6
2017-Nov-09 18:00S 01°31' W 056°18'510.5
2017-Nov-09 17:31S 01°31' W 056°12'713.8
2017-Nov-09 17:01S 01°31' W 056°05'29610.0
2017-Nov-08 11:16S 00°14' W 051°19'415.0
2017-Nov-08 11:01S 00°11' W 051°17'714.3
2017-Nov-08 10:31S 00°07' W 051°11'611.4
2017-Nov-08 10:00S 00°04' W 051°06'4 7.7
2017-Nov-08 09:30S 00°02' W 051°03'4 8.7
2017-Nov-08 09:00N 00°02' W 051°01'510.1
2017-Nov-08 08:30N 00°06' W 050°59'510.9
2017-Nov-08 08:00N 00°09' W 050°54'611.6
2017-Nov-08 07:30N 00°10' W 050°48'611.3
2017-Nov-08 06:59N 00°12' W 050°43'  

Dump ship's entire track history